Mos, Spain
Current Conditions -  °F | °C
As of 11:00 PM on Sunday 25 Jan 2015 (Local Time) from LECO Reporting Station
Clear Clear  
Wind Chill: 45°   Ceiling: Unl
Heat Index: 45°   Visibility: 6mi
Dew Point: 41°   Wind: 1mph
Humidity: 87%   Direction: NA
Pressure: 30.53"   Gusts: NA
Location:  43.16°N, 7.55°W
Report Text: LECO 252200Z VRB01KT CAVOK 07/05 Q1034 NOSIG
Loading
Personal Weather Stations






























Interactive Weather Map New forecast layout! Learn more

10-Day Weather Forecast

Advertisements
Track Severe Weather on mobile